Aviation Digital Data Service (ADDS)

Output produced by METARs form (1936 UTC 25 March 2017)
found at http://www.aviationweather.gov/adds/metars/
 
LQBK 251930Z VRB02KT 8000 NSC 08/06 Q1020 NOSIG
TAF LQBK 251700Z 2518/2618 35005KT CAVOK TX12/2613Z TN05/2606Z 
     TEMPO 2610/2614 06012KT 
     PROB40 
     TEMPO 2610/2618 RA
       
LQMO 251900Z 13003KT 090V180 CAVOK 15/10 Q1016
TAF LQMO 251700Z 2518/2618 VRB02KT CAVOK TX19/2613Z TN06/2606Z 
     TEMPO 2610/2618 RA 
     PROB40 
     TEMPO 2610/2613 TS FEW035CB BKN050 
     BECMG 2612/2614 02015KT 
     PROB40 
     TEMPO 2615/2618 02015G25KT
       
LQSA 251930Z VRB03KT 9999 FEW060 12/06 Q1020
TAF LQSA 251700Z 2518/2618 VRB02KT 9999 BKN050 TX17/2612Z TN07/2604Z 
     TEMPO 2610/2618 30012KT 
     PROB30 
     TEMPO 2613/2618 3000 RA BR BKN010 BKN030
       
LQTZ 251930Z VRB02KT CAVOK 09/02 Q1020
TAF LQTZ 251700Z 2518/2618 VRB02KT 9999 SCT040 TX12/2613Z TN04/2606Z 
     PROB40 2603/2607 2000 BR BKN005 
     TEMPO 2609/2613 04010KT 
     PROB40 
     TEMPO 2613/2616 RA BKN015 OVC030